Terminal Aerodrome Forecast
Issued by NWS Charleston, WV

Current Version | Previous Version | Graphics & Text | Print | Product List | Glossary On
Versions: 1 2 3 4 5 6 7 8 9 10 11 12 13 14 15 16 17 18 19 20 21
626
FTUS41 KRLX 090557
TAFPKB
TAF
KPKB 090557Z 0906/1006 23007KT 1 1/2SM -SHSN BR OVC004
      TEMPO 0907/0911 4SM -SHSN OVC010
     FM091100 23010G17KT 1 1/2SM -SHSN OVC015
     FM091400 24010G17KT 3SM -SHSN OVC015
     FM091800 26010G20KT 5SM -SHSN OVC025
     FM100000 26008KT P6SM -SHSN OVC015
     FM100100 26008KT P6SM OVC015=

USA.gov is the U.S. government's official web portal to all federal, state and local government web resources and services.